Time;durP1;ratioP1;P1;durP2;ratioP2;P2;SDS_P1;SDS_P2;PMS_P1;PMS_P2;Temp;Humidity;BMP_temperature;BMP_pressure;BME280_temperature;BME280_humidity;BME280_pressure;Samples;Min_cycle;Max_cycle;Signal;HPM_P1;HPM_P2
2021/05/25 00:00:55;;;;;;;;;0.00;0.00;;;;;22.63;33.10;101188.88;5075196;28;46252;-60
2021/05/25 00:03:22;;;;;;;;;0.00;0.00;;;;;22.65;33.12;101206.41;5075438;28;45598;-60
2021/05/25 00:05:48;;;;;;;;;0.00;0.00;;;;;22.59;32.96;101203.38;5075421;28;45908;-60
2021/05/25 00:08:15;;;;;;;;;0.00;0.00;;;;;22.61;32.97;101220.94;5074640;28;45855;-61
2021/05/25 00:10:42;;;;;;;;;0.00;0.00;;;;;22.56;33.10;101221.25;5074929;27;46210;-60
2021/05/25 00:13:08;;;;;;;;;0.00;0.00;;;;;22.56;33.13;101220.44;5075224;28;45784;-61
2021/05/25 00:15:35;;;;;;;;;0.00;0.00;;;;;22.54;32.63;101233.84;5075295;28;45431;-61
2021/05/25 00:18:02;;;;;;;;;0.00;0.00;;;;;22.52;32.79;101241.09;5074253;28;45566;-60
2021/05/25 00:20:28;;;;;;;;;0.00;0.00;;;;;22.50;32.78;101245.66;5075269;27;47335;-60
2021/05/25 00:22:54;;;;;;;;;0.00;0.00;;;;;22.50;33.09;101247.50;5074812;28;45442;-61
2021/05/25 00:25:20;;;;;;;;;1.00;0.00;;;;;22.49;32.82;101251.94;5075163;28;45522;-60
2021/05/25 00:27:48;;;;;;;;;0.00;0.00;;;;;22.46;33.34;101257.50;5075189;28;45708;-60
2021/05/25 00:30:17;;;;;;;;;0.75;0.00;;;;;22.44;33.20;101262.09;5072869;28;47253;-60
2021/05/25 00:32:45;;;;;;;;;0.00;0.00;;;;;22.44;32.89;101262.09;5074765;28;45482;-60
2021/05/25 00:35:11;;;;;;;;;1.00;0.00;;;;;22.43;32.84;101266.56;5074301;27;45680;-60
2021/05/25 00:37:37;;;;;;;;;0.00;0.00;;;;;22.42;33.06;101269.34;5075068;28;45920;-60
2021/05/25 00:40:04;;;;;;;;;0.00;0.00;;;;;22.43;33.29;101284.34;5075408;27;47203;-61
2021/05/25 00:42:30;;;;;;;;;0.00;0.00;;;;;22.44;33.22;101283.38;5095207;27;45505;-60
2021/05/25 00:44:56;;;;;;;;;0.00;0.00;;;;;22.42;33.06;101291.47;5095397;27;45706;-60
2021/05/25 00:47:29;;;;;;;;;0.00;0.00;;;;;22.42;33.08;101298.63;5095315;27;45500;-60
2021/05/25 00:49:55;;;;;;;;;0.00;0.00;;;;;22.43;33.12;101292.34;5094248;27;46390;-61
2021/05/25 00:52:22;;;;;;;;;0.00;0.00;;;;;22.45;32.99;101302.88;5077926;27;45748;-60
2021/05/25 00:54:48;;;;;;;;;0.00;0.00;;;;;22.46;32.83;101305.41;5074599;28;45728;-60
2021/05/25 00:57:15;;;;;;;;;0.00;0.00;;;;;22.47;32.92;101303.59;5074468;28;45474;-60
2021/05/25 00:59:40;;;;;;;;;0.00;0.00;;;;;22.48;33.08;101308.81;5074356;28;46368;-60
2021/05/25 01:02:06;;;;;;;;;0.00;0.00;;;;;22.49;33.11;101309.66;5073557;28;45392;-60
2021/05/25 01:04:31;;;;;;;;;0.00;0.00;;;;;22.49;33.19;101307.84;5074427;28;45794;-60
2021/05/25 01:06:57;;;;;;;;;0.00;0.00;;;;;22.50;32.96;101301.56;5074644;28;45644;-61
2021/05/25 01:09:23;;;;;;;;;0.00;0.00;;;;;22.53;33.37;101303.16;5074196;28;46240;-60
2021/05/25 01:11:51;;;;;;;;;0.00;0.00;;;;;22.54;32.89;101311.03;5074273;28;45715;-60
2021/05/25 01:14:16;;;;;;;;;0.00;0.00;;;;;22.55;32.81;101312.75;5073377;28;45497;-60
2021/05/25 01:16:42;;;;;;;;;0.00;0.00;;;;;22.56;32.84;101309.09;5074531;28;45420;-61
2021/05/25 01:19:11;;;;;;;;;0.00;0.00;;;;;22.58;33.15;101310.81;5073975;28;46303;-60
2021/05/25 01:21:37;;;;;;;;;0.00;0.00;;;;;22.59;33.12;101317.84;5074419;28;45611;-60
2021/05/25 01:24:04;;;;;;;;;0.00;0.00;;;;;22.61;33.33;101332.75;5091000;27;45778;-60
2021/05/25 01:26:30;;;;;;;;;0.00;0.00;;;;;22.62;32.77;101354.88;5094848;27;45754;-61
2021/05/25 01:28:56;;;;;;;;;0.00;0.00;;;;;22.64;32.79;101371.59;5094209;27;45903;-61
2021/05/25 01:31:21;;;;;;;;;0.00;0.00;;;;;22.64;33.19;101359.13;5094073;27;45490;-61
2021/05/25 01:33:47;;;;;;;;;0.00;0.00;;;;;22.64;32.71;101377.75;5087763;27;45482;-61
2021/05/25 01:36:14;;;;;;;;;0.00;0.00;;;;;22.67;32.79;101377.53;5072504;28;45795;-61
2021/05/25 01:38:41;;;;;;;;;0.00;0.00;;;;;22.67;32.75;101380.19;5073940;28;46638;-60
2021/05/25 01:41:08;;;;;;;;;0.00;0.00;;;;;22.69;32.75;101388.06;5073835;27;45599;-61
2021/05/25 01:43:34;;;;;;;;;0.00;0.00;;;;;22.69;32.66;101396.06;5073796;28;45578;-60
2021/05/25 01:46:00;;;;;;;;;0.00;0.00;;;;;22.69;32.79;101388.06;5072889;28;45420;-61
2021/05/25 01:48:28;;;;;;;;;0.00;0.00;;;;;22.66;32.56;101391.81;5073471;28;46259;-61
2021/05/25 01:50:53;;;;;;;;;0.00;0.00;;;;;22.69;32.79;101398.72;5077821;27;45854;-61
2021/05/25 01:53:25;;;;;;;;;0.00;0.00;;;;;22.71;32.94;101403.94;5094034;27;45600;-61
2021/05/25 01:55:52;;;;;;;;;0.00;0.00;;;;;22.71;32.72;101396.78;5075471;27;45530;-61
2021/05/25 01:58:32;;;;;;;;;0.00;0.00;;;;;22.71;32.56;101386.13;5093269;27;46124;-61
2021/05/25 02:01:02;;;;;;;;;0.00;0.00;;;;;22.69;33.02;101380.91;5093917;27;45693;-61
2021/05/25 02:03:28;;;;;;;;;0.00;0.00;;;;;22.70;32.72;101379.13;5094161;27;45631;-61
2021/05/25 02:05:53;;;;;;;;;0.00;0.00;;;;;22.71;32.59;101382.66;5093702;27;45760;-61
2021/05/25 02:08:21;;;;;;;;;0.00;0.00;;;;;22.71;32.47;101378.16;5093316;27;45466;-61
2021/05/25 02:10:49;;;;;;;;;0.00;0.00;;;;;22.73;32.44;101394.03;5093463;27;45752;-60
2021/05/25 02:13:15;;;;;;;;;0.00;0.00;;;;;22.73;32.90;101391.34;5093808;27;45423;-61
2021/05/25 02:15:44;;;;;;;;;0.00;0.00;;;;;22.73;32.59;101402.00;5093841;27;45854;-61
2021/05/25 02:18:14;;;;;;;;;0.25;0.00;;;;;22.71;33.07;101396.78;5092598;27;45504;-61
2021/05/25 02:20:42;;;;;;;;;0.00;0.00;;;;;22.72;33.01;101400.31;5093791;27;45718;-60
2021/05/25 02:23:07;;;;;;;;;0.00;0.00;;;;;22.73;32.51;101394.03;5093397;27;45502;-61
2021/05/25 02:25:33;;;;;;;;;0.00;0.00;;;;;22.74;32.44;101395.72;5093741;27;45547;-61
2021/05/25 02:28:00;;;;;;;;;0.00;0.00;;;;;22.74;32.55;101401.03;5092116;27;45929;-61
2021/05/25 02:30:28;;;;;;;;;0.00;0.00;;;;;22.73;32.54;101389.56;5086556;27;45550;-60
2021/05/25 02:32:57;;;;;;;;;0.00;0.00;;;;;22.73;32.99;101399.34;5073054;28;45480;-61
2021/05/25 02:35:22;;;;;;;;;0.00;0.00;;;;;22.73;32.65;101397.53;5072426;28;45842;-61
2021/05/25 02:37:49;;;;;;;;;0.00;0.00;;;;;22.74;33.04;101403.69;5072964;28;46138;-60
2021/05/25 02:40:14;;;;;;;;;0.00;0.00;;;;;22.75;32.83;101408.91;5072010;28;45650;-61
2021/05/25 02:42:40;;;;;;;;;0.00;0.00;;;;;22.75;32.89;101414.25;5073015;28;45521;-60
2021/05/25 02:45:07;;;;;;;;;0.00;0.00;;;;;22.76;32.74;101410.63;5073056;28;45424;-60
2021/05/25 02:47:33;;;;;;;;;0.00;0.00;;;;;22.77;32.95;101420.28;5072758;28;46289;-60
2021/05/25 02:50:08;;;;;;;;;0.00;0.00;;;;;22.78;32.44;101414.03;5088858;27;45727;-61
2021/05/25 02:52:39;;;;;;;;;0.00;0.00;;;;;22.80;32.69;101421.88;5093007;27;45655;-61
2021/05/25 02:55:06;;;;;;;;;0.00;0.00;;;;;22.82;33.00;101410.16;5093271;27;45544;-61
2021/05/25 02:57:32;;;;;;;;;0.00;0.00;;;;;22.83;32.36;101417.16;5093046;27;46173;-61
2021/05/25 02:59:57;;;;;;;;;0.00;0.00;;;;;22.84;32.49;101423.34;5091996;27;45487;-62
2021/05/25 03:02:23;;;;;;;;;0.00;0.00;;;;;22.83;32.61;101422.50;5093493;27;45488;-61
2021/05/25 03:04:48;;;;;;;;;0.00;0.00;;;;;22.81;32.20;101421.78;5093292;27;45346;-61
2021/05/25 03:07:14;;;;;;;;;0.00;0.00;;;;;22.83;32.74;101425.16;5092810;27;45948;-61
2021/05/25 03:09:39;;;;;;;;;0.00;0.00;;;;;22.89;32.76;101431.84;5084189;27;46064;-61
2021/05/25 03:12:05;;;;;;;;;0.00;0.00;;;;;22.90;32.45;101430.06;5071800;28;45488;-60
2021/05/25 03:14:31;;;;;;;;;0.00;0.00;;;;;22.90;32.70;101432.72;5072733;28;45551;-61
2021/05/25 03:16:58;;;;;;;;;0.00;0.00;;;;;22.89;32.65;101434.53;5072218;28;46116;-61
2021/05/25 03:19:24;;;;;;;;;0.00;0.00;;;;;22.91;32.32;101437.06;5072927;27;45835;-61
2021/05/25 03:21:52;;;;;;;;;0.00;0.00;;;;;22.89;32.39;101438.97;5072731;28;45649;-61
2021/05/25 03:24:18;;;;;;;;;0.00;0.00;;;;;22.92;32.50;101452.09;5078199;27;45985;-61
2021/05/25 03:26:43;;;;;;;;;0.00;0.00;;;;;22.93;32.22;101449.31;5092895;27;46127;-60
2021/05/25 03:29:10;;;;;;;;;0.00;0.00;;;;;22.93;32.32;101453.78;5092474;27;45628;-61
2021/05/25 03:31:36;;;;;;;;;1.00;0.00;;;;;22.90;32.58;101452.19;5091960;27;45478;-60
2021/05/25 03:34:02;;;;;;;;;0.00;0.00;;;;;22.93;32.64;101451.13;5091460;27;45395;-61
2021/05/25 03:36:29;;;;;;;;;0.00;0.00;;;;;22.94;32.18;101450.16;5092189;27;46311;-61
2021/05/25 03:38:54;;;;;;;;;0.00;0.00;;;;;22.90;32.26;101432.72;5092825;27;45768;-61
2021/05/25 03:41:20;;;;;;;;;0.00;0.00;;;;;22.94;32.56;101447.47;5092556;27;45447;-60
2021/05/25 03:43:46;;;;;;;;;0.00;0.00;;;;;22.94;32.40;101458.13;5092818;27;45502;-60
2021/05/25 03:46:13;;;;;;;;;0.00;0.00;;;;;22.94;32.31;101472.31;5091230;27;46795;-60
2021/05/25 03:48:38;;;;;;;;;0.00;0.00;;;;;22.93;32.29;101459.97;5092552;27;45390;-61
2021/05/25 03:51:04;;;;;;;;;0.00;0.00;;;;;22.90;32.22;101460.19;5086667;27;45482;-60
2021/05/25 03:53:31;;;;;;;;;0.00;0.00;;;;;22.94;32.32;101466.13;5072276;28;45587;-61
2021/05/25 03:58:49;;;;;;;;;0.00;0.00;;;;;22.94;32.49;101479.44;5072229;28;45414;-61
2021/05/25 04:01:26;;;;;;;;;0.00;0.00;;;;;22.93;32.52;101491.94;5071896;28;45578;-61
2021/05/25 04:03:54;;;;;;;;;0.00;0.00;;;;;22.93;32.46;101488.41;5071918;28;45623;-62
2021/05/25 04:06:22;;;;;;;;;0.00;0.00;;;;;22.88;32.05;101488.75;5074218;28;46209;-61
2021/05/25 04:08:50;;;;;;;;;1.00;0.00;;;;;22.94;32.40;101496.28;5075294;28;45693;-60
2021/05/25 04:11:17;;;;;;;;;0.75;0.00;;;;;22.88;32.29;101485.22;5075464;28;45780;-60
2021/05/25 04:13:43;;;;;;;;;0.00;0.00;;;;;22.95;32.51;101505.97;5075642;28;45376;-61
2021/05/25 04:16:13;;;;;;;;;0.50;0.00;;;;;22.95;32.18;101508.63;5073695;28;46137;-61
2021/05/25 04:18:40;;;;;;;;;0.00;0.00;;;;;22.95;32.38;101497.97;5075422;28;45914;-61
2021/05/25 04:21:05;;;;;;;;;0.25;0.00;;;;;22.96;32.10;101505.00;5075384;28;45411;-61
2021/05/25 04:23:33;;;;;;;;;0.50;0.00;;;;;22.98;32.16;101520.88;5075058;28;45533;-60
2021/05/25 04:25:58;;;;;;;;;0.00;0.00;;;;;22.98;32.04;101512.06;5073915;28;46171;-61
2021/05/25 04:28:24;;;;;;;;;0.00;0.00;;;;;22.99;32.04;101516.41;5074998;28;45621;-61
2021/05/25 04:30:51;;;;;;;;;0.00;0.00;;;;;22.93;32.35;101521.22;5074973;28;45630;-61
2021/05/25 04:33:17;;;;;;;;;0.00;0.00;;;;;22.99;32.10;101530.56;5074918;28;45549;-61
2021/05/25 04:35:43;;;;;;;;;0.00;0.00;;;;;22.98;31.92;101531.53;5074327;28;45921;-61
2021/05/25 04:38:09;;;;;;;;;0.00;0.00;;;;;22.99;32.41;101538.56;5073975;28;45837;-60
2021/05/25 04:40:35;;;;;;;;;0.00;0.00;;;;;23.00;32.01;101534.97;5075070;27;45574;-60
2021/05/25 04:43:03;;;;;;;;;0.00;0.00;;;;;23.01;31.90;101543.78;5074821;28;45597;-61
2021/05/25 04:45:28;;;;;;;;;0.00;0.00;;;;;23.01;32.48;101546.44;5074906;28;45724;-60
2021/05/25 04:47:54;;;;;;;;;0.00;0.00;;;;;23.00;32.19;101553.59;5074149;28;45629;-62
2021/05/25 04:50:22;;;;;;;;;1.00;0.00;;;;;23.00;31.85;101550.94;5074211;28;45486;-60
2021/05/25 04:52:49;;;;;;;;;0.00;0.00;;;;;22.95;32.05;101543.28;5074952;28;45320;-61
2021/05/25 04:55:16;;;;;;;;;1.25;0.00;;;;;23.01;32.15;101552.63;5074084;28;46274;-61
2021/05/25 04:57:42;;;;;;;;;0.50;0.00;;;;;23.02;31.94;101557.00;5074530;28;45814;-60
2021/05/25 05:00:13;;;;;;;;;0.00;0.00;;;;;23.02;31.95;101566.78;5073513;28;45788;-61
2021/05/25 05:02:39;;;;;;;;;0.00;0.00;;;;;23.02;32.05;101580.97;5074759;28;45814;-61
2021/05/25 05:05:06;;;;;;;;;0.00;0.00;;;;;23.03;32.38;101577.34;5073955;28;46189;-61
2021/05/25 05:07:32;;;;;;;;;1.25;0.00;;;;;23.04;31.91;101575.53;5074249;28;45686;-61
2021/05/25 05:09:57;;;;;;;;;0.00;0.00;;;;;23.06;31.88;101581.59;5084461;27;45661;-61
2021/05/25 05:12:23;;;;;;;;;0.00;0.00;;;;;23.05;31.81;101583.44;5094944;27;45562;-61
2021/05/25 05:14:49;;;;;;;;;0.00;0.00;;;;;23.06;32.00;101577.13;5094498;27;46966;-61
2021/05/25 05:17:16;;;;;;;;;2.50;0.00;;;;;23.07;32.35;101591.28;5094210;27;49059;-60
2021/05/25 05:19:43;;;;;;;;;0.00;0.00;;;;;23.08;31.90;101585.03;5095056;27;45444;-60
2021/05/25 05:22:09;;;;;;;;;1.75;0.00;;;;;23.08;32.40;101588.50;5093515;27;45532;-60
2021/05/25 05:24:36;;;;;;;;;0.00;0.00;;;;;23.10;31.86;101593.72;5094070;27;47095;-61
2021/05/25 05:27:02;;;;;;;;;0.00;0.00;;;;;23.07;32.19;101597.47;5094345;27;45769;-61
2021/05/25 05:29:29;;;;;;;;;0.00;0.00;;;;;23.11;32.16;101605.25;5093164;27;45516;-61
2021/05/25 05:31:54;;;;;;;;;0.75;0.00;;;;;23.10;31.83;101601.72;5074242;27;45393;-61
2021/05/25 05:34:20;;;;;;;;;1.00;0.00;;;;;23.11;32.05;101602.59;5073061;28;47692;-60
2021/05/25 05:36:45;;;;;;;;;0.25;0.00;;;;;23.12;32.02;101615.78;5073584;28;45780;-61
2021/05/25 05:39:11;;;;;;;;;0.00;0.00;;;;;23.13;31.86;101612.19;5074054;28;45451;-60
2021/05/25 05:41:37;;;;;;;;;0.00;0.00;;;;;23.13;32.02;101604.19;5074168;28;45828;-61
2021/05/25 05:44:08;;;;;;;;;0.00;0.00;;;;;23.14;32.16;101611.22;5072435;28;46073;-61
2021/05/25 05:46:34;;;;;;;;;0.00;0.00;;;;;23.14;31.89;101616.53;5073681;28;45633;-61
2021/05/25 05:48:59;;;;;;;;;0.00;0.00;;;;;23.15;32.14;101617.38;5073633;28;45379;-61
2021/05/25 05:51:25;;;;;;;;;0.25;0.00;;;;;23.16;32.27;101629.75;5082422;27;45637;-60
2021/05/25 05:53:51;;;;;;;;;0.00;0.00;;;;;23.16;31.81;101630.59;5093976;27;46427;-60
2021/05/25 05:56:19;;;;;;;;;0.00;0.00;;;;;23.17;32.07;101626.94;5092973;27;45699;-61
2021/05/25 05:58:46;;;;;;;;;0.00;0.00;;;;;23.17;31.70;101632.28;5094137;27;45461;-60
2021/05/25 06:01:13;;;;;;;;;1.00;0.00;;;;;23.15;32.00;101638.69;5093781;27;45514;-61
2021/05/25 06:03:40;;;;;;;;;0.00;0.00;;;;;23.18;32.09;101639.34;5093672;27;46584;-61
2021/05/25 06:06:06;;;;;;;;;0.00;0.00;;;;;23.18;32.11;101634.00;5092622;27;45733;-61
2021/05/25 06:08:31;;;;;;;;;0.00;0.00;;;;;23.20;31.71;101629.41;5093916;27;45542;-61
2021/05/25 06:10:57;;;;;;;;;0.00;0.00;;;;;23.21;31.72;101638.25;5073983;27;45423;-60
2021/05/25 06:13:24;;;;;;;;;0.00;0.00;;;;;23.21;32.06;101654.25;5073185;28;46136;-61
2021/05/25 06:15:52;;;;;;;;;0.00;0.00;;;;;23.21;31.92;101654.25;5073297;28;45724;-62
2021/05/25 06:18:17;;;;;;;;;1.00;0.00;;;;;23.21;32.08;101654.25;5072938;28;45771;-60
2021/05/25 06:20:44;;;;;;;;;0.00;0.00;;;;;23.21;31.75;101656.91;5073315;27;45451;-60
2021/05/25 06:23:10;;;;;;;;;0.00;0.00;;;;;23.22;31.68;101653.28;5072495;28;46022;-60
2021/05/25 06:25:36;;;;;;;;;0.00;0.00;;;;;23.22;32.17;101653.28;5068891;28;45644;-61
2021/05/25 06:28:01;;;;;;;;;0.00;0.00;;;;;23.23;31.80;101654.97;5071188;28;45531;-60
2021/05/25 06:30:28;;;;;;;;;0.00;0.00;;;;;23.22;31.55;101655.94;5073232;28;45540;-60
2021/05/25 06:32:54;;;;;;;;;0.00;0.00;;;;;23.09;31.82;101638.16;5072778;28;45755;-61
2021/05/25 06:35:20;;;;;;;;;0.00;0.00;;;;;23.22;31.95;101670.13;5072362;28;45582;-60
2021/05/25 06:37:45;;;;;;;;;0.00;0.00;;;;;23.23;32.04;101669.16;5073429;28;45503;-61
2021/05/25 06:40:11;;;;;;;;;0.00;0.00;;;;;23.24;32.06;101678.00;5072158;28;45498;-61
2021/05/25 06:42:37;;;;;;;;;0.25;0.00;;;;;23.23;31.92;101678.97;5072890;28;46054;-60
2021/05/25 06:45:04;;;;;;;;;0.00;0.00;;;;;23.23;31.61;101682.50;5072706;28;45714;-61
2021/05/25 06:47:29;;;;;;;;;1.00;0.00;;;;;23.23;31.69;101673.63;5054747;28;45558;-60
2021/05/25 06:49:55;;;;;;;;;0.75;0.00;;;;;23.23;32.13;101694.97;5072326;28;45746;-61
2021/05/25 06:52:20;;;;;;;;;0.00;0.00;;;;;23.23;31.63;101684.28;5072125;27;47086;-60
2021/05/25 06:54:46;;;;;;;;;3.00;0.00;;;;;23.24;31.84;101683.34;5072435;28;45471;-61
2021/05/25 06:57:12;;;;;;;;;0.00;0.00;;;;;23.24;31.68;101688.66;5072885;28;45531;-60
2021/05/25 06:59:37;;;;;;;;;0.00;0.00;;;;;23.25;31.67;101692.19;5072843;28;45464;-60
2021/05/25 07:02:04;;;;;;;;;0.25;0.00;;;;;23.23;32.05;101695.81;5071221;28;45664;-61
2021/05/25 07:04:29;;;;;;;;;0.00;0.00;;;;;23.23;31.63;101682.50;5072407;28;45815;-61
2021/05/25 07:06:56;;;;;;;;;0.00;0.00;;;;;23.24;31.94;101686.00;5072417;28;45729;-61
2021/05/25 07:09:21;;;;;;;;;0.00;0.00;;;;;23.26;32.03;101702.75;5072700;28;45469;-61
2021/05/25 07:11:47;;;;;;;;;0.00;0.00;;;;;23.26;31.89;101697.41;5072242;28;45462;-60
2021/05/25 07:14:12;;;;;;;;;1.75;0.00;;;;;23.27;31.55;101708.91;5071315;28;45517;-60
2021/05/25 07:16:38;;;;;;;;;0.25;0.00;;;;;23.27;31.47;101700.91;5072820;28;45689;-60
2021/05/25 07:19:04;;;;;;;;;0.00;0.00;;;;;23.28;31.59;101705.28;5072840;28;45547;-61
2021/05/25 07:21:29;;;;;;;;;0.00;0.00;;;;;23.28;31.58;101707.94;5072396;28;45447;-60
2021/05/25 07:23:55;;;;;;;;;0.00;0.00;;;;;23.28;31.81;101706.13;5074680;27;45435;-62
2021/05/25 07:26:22;;;;;;;;;1.00;0.00;;;;;23.29;32.02;101715.84;5092601;27;45444;-60
2021/05/25 07:28:48;;;;;;;;;0.00;0.00;;;;;23.29;31.93;101715.84;5092955;27;45530;-60
2021/05/25 07:31:15;;;;;;;;;0.00;0.00;;;;;23.29;31.52;101715.84;5090907;27;45543;-61
2021/05/25 07:33:44;;;;;;;;;0.75;0.00;;;;;23.29;32.09;101707.84;5092628;27;45734;-59
2021/05/25 07:36:09;;;;;;;;;1.50;0.00;;;;;23.21;31.28;101720.88;5091100;27;45630;-59
2021/05/25 07:38:35;;;;;;;;;2.00;0.75;;;;;23.01;31.44;101725.81;5093427;27;45517;-59
2021/05/25 07:41:01;;;;;;;;;0.75;0.75;;;;;22.86;31.98;101718.88;5095706;27;46396;-59
2021/05/25 07:43:26;;;;;;;;;0.00;0.00;;;;;22.75;31.66;101722.28;5095835;27;45474;-59
2021/05/25 07:45:52;;;;;;;;;0.50;0.00;;;;;22.63;31.66;101730.16;5095758;27;45562;-59
2021/05/25 07:48:17;;;;;;;;;1.00;0.00;;;;;22.49;32.13;101725.75;5092513;27;45462;-58
2021/05/25 07:50:43;;;;;;;;;2.25;0.25;;;;;22.35;31.91;101720.50;5082755;27;46319;-61
2021/05/25 07:53:09;;;;;;;;;0.00;0.00;;;;;22.25;32.20;101739.75;5083030;27;45924;-58
2021/05/25 07:55:34;;;;;;;;;1.25;0.00;;;;;22.27;32.50;101727.22;5092845;27;45768;-58
2021/05/25 07:58:01;;;;;;;;;1.00;0.00;;;;;22.17;32.36;101705.66;5082468;27;45639;-59
2021/05/25 08:00:27;;;;;;;;;0.75;0.50;;;;;22.37;32.77;101729.25;5090863;27;45933;-59
2021/05/25 08:02:54;;;;;;;;;0.00;0.00;;;;;22.45;32.71;101736.72;5072416;27;47330;-58
2021/05/25 08:05:20;;;;;;;;;2.00;0.75;;;;;22.52;33.00;101733.53;5091902;27;45661;-58
2021/05/25 08:07:46;;;;;;;;;1.25;1.25;;;;;22.62;32.68;101735.59;5089141;27;45537;-60
2021/05/25 08:10:13;;;;;;;;;1.75;0.75;;;;;22.70;33.03;101741.25;5072005;27;46897;-58
2021/05/25 08:12:39;;;;;;;;;1.75;0.00;;;;;22.81;33.31;101727.19;5091172;27;45490;-60
2021/05/25 08:15:07;;;;;;;;;1.00;0.00;;;;;22.92;33.32;101727.31;5091622;27;45811;-58
2021/05/25 08:20:16;;;;;;;;;1.00;0.00;;;;;23.14;33.18;101733.78;5092088;27;45998;-58
2021/05/25 08:22:46;;;;;;;;;1.00;0.00;;;;;23.29;33.11;101725.66;5092973;27;45938;-60
2021/05/25 08:25:14;;;;;;;;;2.00;0.00;;;;;23.38;33.07;101743.66;5078258;27;45761;-59
2021/05/25 08:27:42;;;;;;;;;0.50;0.00;;;;;23.50;33.35;101728.59;5087953;27;45521;-59
2021/05/25 08:30:09;;;;;;;;;0.25;0.25;;;;;23.61;32.96;101739.34;5077889;27;45953;-58
2021/05/25 08:32:36;;;;;;;;;1.25;0.25;;;;;23.70;32.69;101742.31;5090592;27;45363;-58
2021/05/25 08:35:03;;;;;;;;;0.00;0.00;;;;;23.73;32.89;101726.94;5093197;27;45520;-59
2021/05/25 08:37:29;;;;;;;;;1.00;1.00;;;;;23.86;33.22;101740.22;5094137;27;45424;-59
2021/05/25 08:39:54;;;;;;;;;0.00;0.00;;;;;23.92;32.87;101751.41;5084655;27;46161;-61
2021/05/25 08:42:21;;;;;;;;;0.75;0.00;;;;;23.96;33.39;101751.03;5090812;27;45609;-58
2021/05/25 08:44:47;;;;;;;;;0.00;0.00;;;;;24.00;33.15;101749.03;5090286;27;45705;-59
2021/05/25 08:47:13;;;;;;;;;1.00;0.25;;;;;24.02;32.86;101744.41;5089124;27;45618;-59
2021/05/25 08:49:40;;;;;;;;;0.00;0.00;;;;;24.01;32.68;101743.56;5090820;27;47230;-58
2021/05/25 08:52:06;;;;;;;;;0.00;0.00;;;;;24.00;32.61;101747.19;5089848;27;46603;-58
2021/05/25 08:54:33;;;;;;;;;3.00;0.00;;;;;24.00;32.50;101749.03;5087392;27;45451;-58
2021/05/25 08:56:59;;;;;;;;;0.00;0.00;;;;;23.96;33.25;101737.69;5085955;27;47217;-59
2021/05/25 08:59:25;;;;;;;;;0.00;0.00;;;;;23.98;33.04;101738.47;5084943;27;46054;-58
2021/05/25 09:01:50;;;;;;;;;0.75;0.00;;;;;23.98;32.87;101741.13;5085094;27;46603;-58
2021/05/25 09:04:19;;;;;;;;;0.00;0.00;;;;;23.98;33.29;101745.59;5087375;27;45759;-59
2021/05/25 09:06:47;;;;;;;;;2.00;0.00;;;;;23.98;32.94;101748.28;5086672;27;49556;-58
2021/05/25 09:09:18;;;;;;;;;0.00;0.00;;;;;23.94;33.59;101746.78;5075969;27;47152;-58
2021/05/25 09:12:03;;;;;;;;;0.00;0.00;;;;;23.90;33.32;101740.84;5082752;27;45784;-58
2021/05/25 09:14:29;;;;;;;;;0.00;0.00;;;;;23.91;33.30;101747.03;5084598;27;45566;-57
2021/05/25 09:17:14;;;;;;;;;0.00;0.00;;;;;23.88;33.62;101740.94;5089176;27;45433;-58
2021/05/25 09:19:56;;;;;;;;;0.75;0.50;;;;;23.87;33.07;101754.41;5089546;27;46468;-58
2021/05/25 09:22:31;;;;;;;;;0.00;0.00;;;;;23.85;33.17;101748.31;5088671;27;45690;-58
2021/05/25 09:25:00;;;;;;;;;1.75;0.00;;;;;23.82;33.86;101733.41;5076408;27;46541;-59
2021/05/25 09:27:37;;;;;;;;;1.00;1.00;;;;;23.80;33.06;101742.47;5087027;27;46036;-58
2021/05/25 09:30:14;;;;;;;;;1.00;0.00;;;;;23.77;33.73;101730.22;5069838;27;46170;-59
2021/05/25 09:33:06;;;;;;;;;0.75;0.75;;;;;23.74;33.29;101727.78;5085872;27;45744;-58
2021/05/25 09:35:39;;;;;;;;;0.00;0.00;;;;;23.67;33.43;101724.72;5091420;27;46399;-58
2021/05/25 09:38:08;;;;;;;;;0.25;0.00;;;;;23.68;33.20;101731.75;5087812;27;45771;-59
2021/05/25 09:40:36;;;;;;;;;3.50;1.00;;;;;23.66;33.31;101739.03;5084877;27;46201;-57
2021/05/25 09:43:14;;;;;;;;;0.00;0.00;;;;;23.65;33.03;101728.47;5086736;27;45741;-58
2021/05/25 09:45:55;;;;;;;;;1.00;0.00;;;;;23.61;33.17;101747.34;5086926;27;45672;-57
2021/05/25 09:48:22;;;;;;;;;0.75;0.75;;;;;23.59;33.88;101722.63;5093984;27;45502;-57
2021/05/25 09:50:48;;;;;;;;;0.75;0.00;;;;;23.57;33.79;101724.53;5083135;27;45822;-57
2021/05/25 09:53:23;;;;;;;;;0.00;0.00;;;;;23.55;33.68;101726.47;5070974;27;45708;-57
2021/05/25 09:55:56;;;;;;;;;0.00;0.00;;;;;23.55;33.88;101722.97;5084588;27;45947;-58
2021/05/25 09:58:41;;;;;;;;;0.00;0.00;;;;;23.52;33.55;101737.38;5091134;27;45807;-57
2021/05/25 10:01:09;;;;;;;;;0.00;0.00;;;;;23.49;33.94;101751.78;5088991;27;47341;-59
2021/05/25 10:03:49;;;;;;;;;0.00;0.00;;;;;23.33;33.80;101738.69;5090016;27;45563;-57
2021/05/25 10:06:16;;;;;;;;;0.00;0.00;;;;;23.44;33.65;101766.38;5086868;27;45535;-57
2021/05/25 10:08:44;;;;;;;;;1.00;0.00;;;;;23.32;34.31;101757.44;5086122;27;45566;-58
2021/05/25 10:11:11;;;;;;;;;0.50;0.50;;;;;23.37;34.42;101765.97;5094007;27;46124;-60
2021/05/25 10:13:37;;;;;;;;;0.50;0.50;;;;;23.33;34.50;101773.34;5083683;27;45628;-58
2021/05/25 10:16:08;;;;;;;;;1.25;1.00;;;;;23.29;34.16;101784.31;5085623;27;45857;-59
2021/05/25 10:18:49;;;;;;;;;0.00;0.00;;;;;23.25;34.44;101783.63;5087715;27;45461;-57
2021/05/25 10:21:15;;;;;;;;;1.00;1.00;;;;;23.25;34.24;101804.97;5100506;27;46806;-60
2021/05/25 10:23:43;;;;;;;;;0.00;0.00;;;;;23.22;34.60;101799.88;5093186;27;45763;-58
2021/05/25 10:26:18;;;;;;;;;0.00;0.00;;;;;23.19;35.07;101800.06;5089743;27;45460;-60
2021/05/25 10:28:53;;;;;;;;;0.00;0.00;;;;;23.16;35.14;101816.28;5095165;27;46259;-59
2021/05/25 10:31:25;;;;;;;;;0.50;0.25;;;;;23.13;34.90;101822.69;5102143;27;46933;-62
2021/05/25 10:34:11;;;;;;;;;0.50;0.50;;;;;23.09;35.01;101808.69;5089351;27;45500;-64
2021/05/25 10:36:42;;;;;;;;;0.00;0.00;;;;;23.04;35.32;101813.50;5087362;27;45571;-64
2021/05/25 10:39:08;;;;;;;;;0.25;0.25;;;;;22.98;35.15;101816.59;5099713;27;45917;-65
2021/05/25 10:41:42;;;;;;;;;0.00;0.00;;;;;22.96;35.44;101813.19;5098783;27;45946;-63
2021/05/25 10:44:07;;;;;;;;;0.25;0.25;;;;;22.91;35.01;101809.97;5087038;27;46232;-63
2021/05/25 10:46:33;;;;;;;;;0.00;0.00;;;;;22.88;35.64;101802.19;5087907;27;45784;-62
2021/05/25 10:49:14;;;;;;;;;0.00;0.00;;;;;22.83;35.53;101787.38;5087931;27;45840;-61
2021/05/25 10:51:52;;;;;;;;;1.00;0.00;;;;;22.79;35.83;101783.25;5090924;27;45485;-61
2021/05/25 10:54:29;;;;;;;;;0.00;0.00;;;;;22.77;35.23;101781.63;5094541;27;45425;-60
2021/05/25 10:57:20;;;;;;;;;0.00;0.00;;;;;22.73;35.59;101789.00;5080511;27;45655;-60
2021/05/25 11:00:12;;;;;;;;;0.00;0.00;;;;;22.68;35.78;101786.63;5080516;27;45777;-62
2021/05/25 11:03:02;;;;;;;;;0.00;0.00;;;;;22.66;36.11;101782.34;5086808;27;45501;-61
2021/05/25 11:05:31;;;;;;;;;0.00;0.00;;;;;22.62;35.80;101779.06;5082279;27;45706;-58
2021/05/25 11:08:12;;;;;;;;;0.75;0.25;;;;;22.61;36.43;101795.13;5095130;27;45958;-64
2021/05/25 11:10:50;;;;;;;;;1.50;0.00;;;;;22.60;36.28;101786.31;5087979;27;45731;-61
2021/05/25 11:13:16;;;;;;;;;0.00;0.00;;;;;22.58;36.23;101774.06;5086256;27;45815;-61
2021/05/25 11:16:32;;;;;;;;;0.00;0.00;;;;;22.55;36.06;101778.63;5089894;27;45821;-61
2021/05/25 11:19:06;;;;;;;;;0.00;0.00;;;;;22.53;36.07;101777.88;5097876;27;45603;-61
2021/05/25 11:21:44;;;;;;;;;0.00;0.00;;;;;22.50;36.09;101772.72;5096640;27;45762;-61
2021/05/25 11:24:46;;;;;;;;;0.00;0.00;;;;;22.49;36.33;101771.00;5095186;27;46375;-62
2021/05/25 11:27:30;;;;;;;;;0.75;0.00;;;;;22.48;36.34;101776.44;5067092;27;45589;-61
2021/05/25 11:30:08;;;;;;;;;0.00;0.00;;;;;22.47;36.32;101764.09;5090255;27;45733;-62
2021/05/25 11:32:47;;;;;;;;;1.00;0.00;;;;;22.45;35.95;101758.03;5100727;27;45674;-60
2021/05/25 11:35:19;;;;;;;;;0.25;0.00;;;;;22.42;37.30;101767.91;5089161;27;46159;-64